December, 22, 2014, 3:59 pm
Plane Spotting In Texas -- Send Me The Scoop On Your Favorite Spots
Contact TexasSpotters.net
Flight Radar Provided By FlightRadar24.com
Dallas Ft. Worth Airports METAR
KDFW 222153Z 30014KT 10SM SCT170 BKN200 OVC300 16/07 A2960 RMK AO2 SLP020 T01560072

KDAL 222153Z 30010KT 10SM SCT220 BKN250 16/08 A2960 RMK AO2 SLP021 T01560078

Houston Airports METAR
KIAH 222153Z 25005KT 10SM FEW030 BKN180 BKN250 22/16 A2962 RMK AO2 SLP028 T02170156 $

KHOU 222153Z 21013KT 10SM FEW027 BKN190 BKN250 24/16 A2961 RMK AO2 SLP030 T02390161

Austin Airport METAR
KAUS 222153Z 19005KT 10SM SCT120 BKN200 OVC250 21/13 A2960 RMK AO2 SLP020 T02110128

San Antonio Airport METAR
KSAN 222151Z 31009KT 10SM CLR 22/11 A2996 RMK AO2 SLP146 T02170111

EL Paso Airport METAR
KELP 222151Z 28013G22KT 250V310 10SM FEW110 FEW230 19/01 A2974 RMK AO2 PK WND 26031/2106 SLP022 T01890006

Airport Delays
CLE (Cleveland Hopkins International Airport)
This airport has been deicing aircraft since 22/07:27.

DEN (Denver International Airport)
This airport has been deicing aircraft since 22/14:19.

EWR (Newark Liberty International Airport)
A Ground Delay Program has been issued affecting flights arriving between 22/15:48 and 22/21:59 due to WEATHER / LOW CEILINGS. Flights are being delayed an average of 44.0 minutes.

JFK (John F. Kennedy International Airport)
A Ground Delay Program has been issued affecting flights arriving between 22/16:38 and 23/00:59 due to WEATHER / LOW CEILINGS. Flights are being delayed an average of 89.0 minutes.

LGA (LaGuardia Airport)
A Ground Delay Program has been issued affecting flights arriving between 22/13:00 and 22/21:59 due to WEATHER / LOW CEILINGS. Flights are being delayed an average of 19.0 minutes.

PIT (Pittsburgh International Airport)
This airport has been deicing aircraft since 22/06:44.

Spotter Videos
Emirates A380 Inaugural Flight To DFW Qantas A380 Inaugural Flight To DFW

Twitter Feed